Station SVNM4 - South Haven Light, South Haven, MI Image indicating link to RSS feed of recent meteorological observations for station SVNM4


Conditions at SVNM4 as of
(1:30 am EDT)
0530 GMT on 07/19/2024:
     

Click on the graph icon in the table below to see a time series plot of the last five days of that observation.

5-day plot - Wind Speed Wind Speed (WSPD): 0 kts
5-day plot - Wind Gust Wind Gust (GST): 1 kts
5-day plot - Air Temperature Air Temperature (ATMP): 60.4 °F
5-day plot -  Wind Speed, Wind Gust and Atmospheric Pressure Combined plot of Wind Speed, Gust, and Air Pressure
Previous observations
TIME
(EDT)
5-day plot - Wind Direction
WDIR
 
5-day plot - Wind Speed
WSPD
kts
5-day plot - Wind Gust
GST
kts
5-day plot - Wave Height
WVHT
ft
5-day plot - Dominant Wave Period
DPD
sec
5-day plot - Average Wave Period
APD
sec
5-day plot - Mean Wave Direction
MWD
 
5-day plot - Atmospheric Pressure
PRES
in
5-day plot - Pressure Tendency
PTDY
in
5-day plot - Air Temperature
ATMP
°F
5-day plot - Water Temperature
WTMP
°F
5-day plot - Dew Point
DEWP
°F
5-day plot - Salinity
SAL
psu
5-day plot - Visibility
VIS
nmi
5-day plot - Tide (above MLLW)
TIDE
ft
2024-07-19 01:20 amENE 2 2------ 61.0-----
2024-07-19 01:10 amENE 2 2------ 60.8-----
2024-07-19 01:00 am NE 1 1------ 60.8-----
2024-07-19 12:50 am NE 1 2------ 61.5-----
2024-07-19 12:40 am NE 2 2------ 61.7-----
2024-07-19 12:30 amENE 1 1------ 61.7-----
2024-07-19 12:20 amENE 2 2------ 61.9-----
2024-07-19 12:10 am E 3 3------ 62.1-----
2024-07-19 12:00 am E 3 3------ 62.8-----
2024-07-18 11:50 pmENE 3 4------ 62.8-----
2024-07-18 11:40 pm E 3 4------ 63.3-----
2024-07-18 11:30 pm NE 3 4------ 64.2-----
2024-07-18 11:20 pmNNE 4 4------ 63.9-----
2024-07-18 11:10 pmNNE 4 4------ 63.9-----
2024-07-18 11:00 pm N 5 5------ 63.9-----
2024-07-18 10:50 pm N 5 5------ 64.0-----
2024-07-18 10:40 pm N 6 6------ 64.0-----
2024-07-18 10:30 pm N 5 6------ 63.7-----
2024-07-18 10:20 pm N 5 6------ 63.5-----
2024-07-18 10:10 pm N 6 6------ 63.9-----
2024-07-18 10:00 pm N 6 6------ 63.3-----
2024-07-18 09:50 pm N 6 7------ 63.9-----
2024-07-18 09:40 pm N 6 7------ 64.0-----
2024-07-18 09:30 pm N 8 8------ 64.4-----
2024-07-18 09:20 pm N 6 7------ 64.2-----
2024-07-18 09:10 pm N 8 8------ 64.6-----
2024-07-18 09:00 pm N 8 9------ 64.6-----
2024-07-18 08:50 pm N 9 9------ 65.3-----
2024-07-18 08:40 pm N 9 9------ 65.5-----
2024-07-18 08:30 pm N 10 10------ 65.5-----
2024-07-18 08:20 pm N 9 9------ 65.7-----
2024-07-18 08:10 pm N 10 10------ 65.7-----
2024-07-18 08:00 pm N 9 9------ 65.3-----
2024-07-18 07:40 pm N 8 8------ 66.0-----
2024-07-18 07:30 pm N 7 7------ 66.4-----
2024-07-18 07:20 pm N 7 8------ 66.9-----
2024-07-18 07:10 pmNNW 7 8------ 66.4-----
2024-07-18 07:00 pm NW 8 9------ 66.7-----
2024-07-18 06:50 pm NW 8 9------ 66.7-----
2024-07-18 06:40 pm NW 9 11------ 66.4-----
2024-07-18 06:30 pm NW 10 11------ 66.7-----
2024-07-18 06:20 pm NW 10 11------ 66.7-----
2024-07-18 06:10 pm NW 10 11------ 66.7-----
2024-07-18 06:00 pm NW 11 12------ 66.6-----
2024-07-18 05:50 pm NW 11 12------ 66.4-----
2024-07-18 05:40 pm NW 13 14------ 66.7-----
2024-07-18 05:30 pmWNW 13 14------ 66.7-----
2024-07-18 05:20 pm NW 13 14------ 67.1-----
2024-07-18 05:10 pm NW 12 13------ 66.9-----
2024-07-18 05:00 pm NW 11 12------ 66.9-----
2024-07-18 04:50 pm NW 10 11------ 66.6-----
2024-07-18 04:40 pm NW 11 11------ 66.7-----
2024-07-18 04:30 pmWNW 12 13------ 67.1-----
2024-07-18 04:20 pmWNW 12 12------ 67.5-----
2024-07-18 04:10 pm NW 11 12------ 66.7-----
2024-07-18 04:00 pm NW 9 11------ 66.6-----
2024-07-18 03:50 pmWNW 12 12------ 66.6-----
2024-07-18 03:40 pm NW 10 12------ 66.4-----
2024-07-18 03:30 pm NW 9 10------ 66.2-----
2024-07-18 03:20 pm NW 10 11------ 66.2-----
2024-07-18 03:10 pm NW 10 11------ 66.2-----
2024-07-18 03:00 pmWNW 11 12------ 66.2-----
2024-07-18 02:50 pm NW 9 11------ 65.8-----
2024-07-18 02:40 pm NW 8 9------ 65.7-----
2024-07-18 02:30 pm NW 10 11------ 65.8-----
2024-07-18 02:20 pm NW 10 11------ 65.8-----
2024-07-18 02:10 pm NW 9 10------ 65.7-----
2024-07-18 02:00 pm NW 9 11------ 65.5-----
2024-07-18 01:50 pm NW 10 11------ 65.7-----
2024-07-18 01:40 pmWNW 11 12------ 65.5-----
2024-07-18 01:30 pm NW 8 10------ 65.1-----
2024-07-18 01:20 pm NW 9 10------ 65.1-----
2024-07-18 01:10 pm NW 10 11------ 65.1-----
2024-07-18 01:00 pmWNW 13 14------ 64.9-----
2024-07-18 12:50 pm NW 11 12------ 64.8-----
2024-07-18 12:40 pm NW 11 12------ 64.6-----
2024-07-18 12:30 pm NW 9 10------ 64.4-----
2024-07-18 12:20 pm NW 10 11------ 64.2-----
2024-07-18 12:10 pm NW 9 10------ 64.0-----
2024-07-18 12:00 pm NW 8 9------ 64.0-----
2024-07-18 11:50 am NW 10 11------ 63.7-----
2024-07-18 11:40 amNNW 12 13------ 63.7-----
2024-07-18 11:30 amNNW 12 13------ 63.3-----
2024-07-18 11:20 amNNW 12 14------ 63.3-----
2024-07-18 11:10 amNNW 14 15------ 63.3-----
2024-07-18 11:00 amNNW 15 16------ 63.1-----
2024-07-18 10:50 amNNW 16 17------ 63.1-----
2024-07-18 10:40 amNNW 15 16------ 63.1-----
2024-07-18 10:30 amNNW 16 19------ 63.1-----
2024-07-18 10:20 amNNW 15 16------ 63.1-----
2024-07-18 10:10 amNNW 13 15------ 63.5-----
2024-07-18 10:00 am N 13 15------ 63.3-----
2024-07-18 09:50 am N 12 15------ 63.5-----
2024-07-18 09:40 amNNW 11 12------ 63.3-----
2024-07-18 09:30 am N 11 12------ 63.3-----
2024-07-18 09:20 am N 12 13------ 63.3-----
2024-07-18 09:10 am N 12 14------ 63.3-----
2024-07-18 09:00 am N 12 14------ 63.3-----
2024-07-18 08:50 am N 13 15------ 63.3-----
2024-07-18 08:40 am N 12 15------ 63.0-----
2024-07-18 08:30 am N 12 13------ 62.8-----
2024-07-18 08:20 am N 12 15------ 62.8-----
2024-07-18 08:10 am N 13 15------ 62.2-----
2024-07-18 08:00 am N 12 13------ 62.1-----
2024-07-18 07:50 am N 11 13------ 62.2-----
2024-07-18 07:40 am N 12 13------ 62.4-----
2024-07-18 07:30 am N 12 15------ 62.1-----
2024-07-18 07:20 am N 10 12------ 61.9-----
2024-07-18 07:10 amNNE 9 11------ 61.2-----
2024-07-18 07:00 amNNE 9 10------ 61.0-----
2024-07-18 06:50 am N 10 12------ 60.8-----
2024-07-18 06:40 am N 12 14------ 61.0-----
2024-07-18 06:30 am N 12 15------ 61.0-----
2024-07-18 06:20 am N 12 14------ 61.3-----
2024-07-18 06:10 am N 13 17------ 61.3-----
2024-07-18 06:00 am N 13 15------ 61.2-----
2024-07-18 05:50 am N 14 17------ 61.5-----
2024-07-18 05:40 am N 13 15------ 61.5-----
2024-07-18 05:30 am N 12 13------ 61.3-----
2024-07-18 05:20 am N 13 15------ 61.7-----
2024-07-18 05:10 am N 15 17------ 61.7-----
2024-07-18 05:00 am N 13 15------ 61.3-----
2024-07-18 04:50 am N 13 15------ 61.7-----
2024-07-18 04:40 am N 15 17------ 61.7-----
2024-07-18 04:30 am N 17 20------ 62.1-----
2024-07-18 04:20 am N 18 20------ 62.2-----
2024-07-18 04:10 am N 18 20------ 62.4-----
2024-07-18 04:00 am N 15 17------ 62.6-----
2024-07-18 03:50 am N 15 17------ 63.0-----
2024-07-18 03:40 am N 15 17------ 63.3-----
2024-07-18 03:30 am N 15 18------ 64.0-----
2024-07-18 03:20 am NW 16 19------ 64.9-----
2024-07-18 03:10 am N 10 12------ 64.2-----
2024-07-18 03:00 am N 10 12------ 64.6-----
2024-07-18 02:50 am N 12 15------ 64.6-----
2024-07-18 02:40 am N 12 14------ 64.6-----
2024-07-18 02:30 am N 12 15------ 64.4-----
2024-07-18 02:20 am N 14 18------ 64.8-----
2024-07-18 02:10 am N 13 15------ 64.8-----
2024-07-18 02:00 am N 13 16------ 64.8-----
2024-07-18 01:50 am N 14 15------ 65.3-----
2024-07-18 01:40 am N 16 19------ 65.8-----
2024-07-18 01:30 amNNE 10 13------ 64.9-----
2024-07-18 01:20 amNNE 9 12------ 65.3-----
2024-07-18 01:10 am N 12 13------ 65.8-----
2024-07-18 01:00 am N 14 17------ 66.0-----
2024-07-18 12:50 am N 14 17------ 66.2-----